Terminal Aerodrome Forecast
Issued by NWS Binghamton, NY

Home | Current Version | Previous Version | Text Only | Print | Product List | Glossary On
Versions: 1 2 3 4 5 6 7 8 9 10 11 12 13 14 15 16 17 18 19
132
FTUS41 KBGM 060535
TAFBGM
TAF
KBGM 060535Z 0606/0706 29004KT P6SM SCT140
     FM061400 11004KT P6SM SCT080
     FM061600 11006KT P6SM BKN140
     FM062300 14007KT P6SM -RASN OVC040
     FM070000 14007KT 5SM -RASN OVC022
     FM070300 13008KT 3SM -RASN OVC012
      TEMPO 0703/0706 2SM -SN OVC009=

USA.gov is the U.S. government's official web portal to all federal, state and local government web resources and services.